»·PEaware :: N75232 KSBA-KBUR

N75232 :: KSBA-KBUR

FLIGHT INFORMATION

Flight Status: Arrived
Operator: Privately registered:
United States
More flights under this callsign
Pilot: Daniel B. (28719)
Aircraft: CESSNA 172 SKYHAWK
(C172)
More flights by this aircraft type
Origin: KSBA Santa Barbara Mun
United States
Destination: KBUR Bob Hope-Burbank
United States
More flights between these airports :: More routes between these airports
Route: +
File this flight plan on PilotEdge
Remarks:
Altitude:
(Current/Filed)
0ft
Speed:
(Current/Filed)
0kts
Departed: 19-Apr-20 12:49 PM
Arrived: 19-Apr-20 01:31 PM
Distance/Time
Traveled:
74nm/0:42
Distance/Time
To Go:
Arrived

Flight Plot

Page will automatically refresh every two minutes.


Map Options




Map Legend


Flown Route
Filed Route
Departure Airport
Arrival Airport
Navaid (VOR, NDB)
Fix

Horizontal Profiles

Position Reports

Time Latitude Longitude Heading Altitude Ground
Speed
19-Apr-20 12:36 34.422664 -119.835593 340 10ft 0kts
19-Apr-20 12:37 34.422664 -119.835593 340 10ft 0kts
19-Apr-20 12:38 34.422664 -119.835593 340 10ft 0kts
19-Apr-20 12:39 34.422669 -119.835627 255 10ft 0kts
19-Apr-20 12:40 34.422675 -119.836988 262 12ft 5kts
19-Apr-20 12:41 34.426429 -119.838267 344 11ft 16kts
19-Apr-20 12:42 34.430340 -119.839553 284 14ft 0kts
19-Apr-20 12:43 34.430403 -119.839674 210 14ft 0kts
19-Apr-20 12:44 34.430402 -119.839675 215 14ft 0kts
19-Apr-20 12:45 34.430626 -119.839823 269 14ft 0kts
19-Apr-20 12:46 34.430626 -119.839823 269 14ft 0kts
19-Apr-20 12:47 34.429787 -119.840061 166 14ft 34kts
19-Apr-20 12:48 34.410031 -119.833102 159 713ft 81kts
19-Apr-20 12:49 34.388802 -119.821680 152 1494ft 94kts
19-Apr-20 12:50 34.364340 -119.802304 114 1905ft 90kts
19-Apr-20 12:51 34.358963 -119.773233 103 2715ft 91kts
19-Apr-20 12:52 34.352944 -119.743337 103 3452ft 92kts
19-Apr-20 12:53 34.346884 -119.706341 104 3520ft 119kts
19-Apr-20 12:54 34.338852 -119.667141 106 3547ft 120kts
19-Apr-20 12:55 34.330458 -119.627655 105 3533ft 121kts
19-Apr-20 12:56 34.324109 -119.587453 106 3509ft 122kts
19-Apr-20 12:57 34.315230 -119.547739 108 3501ft 122kts
19-Apr-20 12:58 34.304939 -119.508409 106 3492ft 123kts
19-Apr-20 12:59 34.296309 -119.468253 106 3494ft 124kts
19-Apr-20 13:00 34.287109 -119.428226 108 3504ft 124kts
19-Apr-20 13:01 34.277660 -119.387876 107 3514ft 124kts
19-Apr-20 13:02 34.268532 -119.347429 107 3521ft 125kts
19-Apr-20 13:03 34.258774 -119.307030 109 3495ft 125kts
19-Apr-20 13:04 34.247866 -119.267206 110 3505ft 124kts
19-Apr-20 13:05 34.235785 -119.228028 108 3503ft 124kts
19-Apr-20 13:06 34.229444 -119.186629 103 3502ft 125kts
19-Apr-20 13:07 34.221570 -119.146102 106 3518ft 124kts
19-Apr-20 13:08 34.211859 -119.106253 110 3524ft 123kts
19-Apr-20 13:09 34.208167 -119.065366 83 3525ft 125kts
19-Apr-20 13:10 34.212176 -119.023635 84 3535ft 124kts
19-Apr-20 13:11 34.214672 -118.982409 87 3573ft 123kts
19-Apr-20 13:12 34.215128 -118.941026 89 3587ft 124kts
19-Apr-20 13:13 34.217378 -118.899209 85 3583ft 125kts
19-Apr-20 13:14 34.218894 -118.857423 88 3585ft 124kts
19-Apr-20 13:15 34.219018 -118.815671 91 3574ft 124kts
19-Apr-20 13:16 34.218820 -118.773869 92 3540ft 124kts
19-Apr-20 13:17 34.219940 -118.732762 83 3548ft 122kts
19-Apr-20 13:18 34.221277 -118.691933 90 3544ft 120kts
19-Apr-20 13:19 34.217976 -118.652603 95 3555ft 118kts
19-Apr-20 13:20 34.214507 -118.616573 89 3570ft 119kts
19-Apr-20 13:21 34.213621 -118.582447 89 3567ft 119kts
19-Apr-20 13:22 34.211302 -118.548643 94 3500ft 119kts
19-Apr-20 13:23 34.208601 -118.516630 91 3270ft 129kts
19-Apr-20 13:24 34.201889 -118.487385 113 2893ft 124kts
19-Apr-20 13:25 34.198696 -118.460086 87 2521ft 124kts
19-Apr-20 13:26 34.198981 -118.431745 92 1931ft 128kts
19-Apr-20 13:27 34.198343 -118.403955 90 1473ft 113kts
19-Apr-20 13:28 34.198051 -118.381275 92 1037ft 75kts
19-Apr-20 13:29 34.197905 -118.366797 91 725ft 45kts
19-Apr-20 13:30 34.198818 -118.364563 1 723ft 0kts
19-Apr-20 13:32 34.200212 -118.363908 25 726ft 8kts
19-Apr-20 13:33 34.200321 -118.363794 160 727ft 0kts
19-Apr-20 13:34 34.200321 -118.363794 160 727ft 0kts
19-Apr-20 13:35 34.200321 -118.363794 160 727ft 0kts
19-Apr-20 13:36 34.200321 -118.363794 160 727ft 0kts
19-Apr-20 13:37 34.200321 -118.363794 160 727ft 0kts
19-Apr-20 13:38 34.200321 -118.363794 160 727ft 0kts
19-Apr-20 13:39 34.200321 -118.363794 160 727ft 0kts
19-Apr-20 13:40 34.200321 -118.363794 160 727ft 0kts
19-Apr-20 13:41 34.200321 -118.363794 160 727ft 0kts
19-Apr-20 13:42 34.200321 -118.363794 160 727ft 0kts
19-Apr-20 13:43 34.200321 -118.363794 160 727ft 0kts
19-Apr-20 13:44 34.200321 -118.363794 160 727ft 0kts
19-Apr-20 13:45 34.200321 -118.363794 160 727ft 0kts

Navigation Log

Ident Type
Flight plan parsing failed, navigation log unavailable